sensor_id;sensor_type;location;lat;lon;timestamp;pressure;altitude;pressure_sealevel;temperature;humidity
56198;BME280;42700;42.524;12.052;2023-06-04T02:15:42;92870.97;;;19.84;100.00
56198;BME280;42700;42.524;12.052;2023-06-04T02:18:18;92960.94;;;19.83;100.00
56198;BME280;42700;42.524;12.052;2023-06-04T02:20:47;93115.53;;;19.85;100.00
56198;BME280;42700;42.524;12.052;2023-06-04T02:23:13;93301.78;;;19.91;100.00
56198;BME280;42700;42.524;12.052;2023-06-04T02:25:39;93376.03;;;19.92;100.00
56198;BME280;42700;42.524;12.052;2023-06-04T02:28:04;93568.94;;;20.00;100.00
56198;BME280;42700;42.524;12.052;2023-06-04T02:30:29;93714.09;;;20.05;100.00
56198;BME280;42700;42.524;12.052;2023-06-04T02:32:55;93845.84;;;20.10;100.00
56198;BME280;42700;42.524;12.052;2023-06-04T02:35:21;94162.13;;;20.22;100.00
56198;BME280;42700;42.524;12.052;2023-06-04T02:37:49;94312.81;;;20.27;100.00
56198;BME280;42700;42.524;12.052;2023-06-04T02:40:14;94426.91;;;20.31;100.00
56198;BME280;42700;42.524;12.052;2023-06-04T02:42:40;94442.25;;;20.31;100.00
56198;BME280;42700;42.524;12.052;2023-06-04T02:45:05;94561.00;;;20.34;100.00
56198;BME280;42700;42.524;12.052;2023-06-04T02:47:31;94635.81;;;20.37;100.00
56198;BME280;42700;42.524;12.052;2023-06-04T02:49:56;94508.84;;;20.30;100.00
56198;BME280;42700;42.524;12.052;2023-06-04T02:52:22;94586.34;;;20.33;100.00
56198;BME280;42700;42.524;12.052;2023-06-04T02:54:48;94549.25;;;20.30;100.00
56198;BME280;42700;42.524;12.052;2023-06-04T02:57:13;94573.19;;;20.32;100.00
56198;BME280;42700;42.524;12.052;2023-06-04T02:59:38;94508.34;;;20.28;100.00
56198;BME280;42700;42.524;12.052;2023-06-04T03:02:04;94384.91;;;20.21;100.00
56198;BME280;42700;42.524;12.052;2023-06-04T03:04:30;94287.31;;;20.16;100.00
56198;BME280;42700;42.524;12.052;2023-06-04T03:07:02;93853.75;;;19.95;100.00
56198;BME280;42700;42.524;12.052;2023-06-04T03:09:28;93971.69;;;20.01;100.00
56198;BME280;42700;42.524;12.052;2023-06-04T03:11:56;94016.31;;;20.02;100.00
56198;BME280;42700;42.524;12.052;2023-06-04T03:14:22;93779.81;;;19.92;100.00
56198;BME280;42700;42.524;12.052;2023-06-04T03:16:48;93950.78;;;19.98;100.00
56198;BME280;42700;42.524;12.052;2023-06-04T03:19:14;93671.88;;;19.85;100.00
56198;BME280;42700;42.524;12.052;2023-06-04T03:21:39;93714.97;;;19.85;100.00
56198;BME280;42700;42.524;12.052;2023-06-04T03:24:05;93708.00;;;19.84;100.00
56198;BME280;42700;42.524;12.052;2023-06-04T03:26:31;93820.38;;;19.87;100.00
56198;BME280;42700;42.524;12.052;2023-06-04T03:28:57;93804.22;;;19.87;100.00
56198;BME280;42700;42.524;12.052;2023-06-04T03:31:22;93861.22;;;19.89;100.00
56198;BME280;42700;42.524;12.052;2023-06-04T03:33:48;93960.16;;;19.92;100.00
56198;BME280;42700;42.524;12.052;2023-06-04T03:36:13;94071.50;;;19.96;100.00
56198;BME280;42700;42.524;12.052;2023-06-04T03:38:39;93714.03;;;19.81;100.00
56198;BME280;42700;42.524;12.052;2023-06-04T03:41:05;93806.03;;;19.83;100.00
56198;BME280;42700;42.524;12.052;2023-06-04T03:43:30;93900.69;;;19.85;100.00
56198;BME280;42700;42.524;12.052;2023-06-04T03:45:56;93872.84;;;19.81;100.00
56198;BME280;42700;42.524;12.052;2023-06-04T03:48:21;93911.66;;;19.80;100.00
56198;BME280;42700;42.524;12.052;2023-06-04T03:50:47;93827.56;;;19.74;100.00
56198;BME280;42700;42.524;12.052;2023-06-04T03:53:12;94022.47;;;19.82;100.00
56198;BME280;42700;42.524;12.052;2023-06-04T03:55:38;94060.16;;;19.82;100.00
56198;BME280;42700;42.524;12.052;2023-06-04T03:58:03;94173.34;;;19.85;100.00
56198;BME280;42700;42.524;12.052;2023-06-04T04:00:29;94254.56;;;19.87;100.00
56198;BME280;42700;42.524;12.052;2023-06-04T04:02:54;94385.22;;;19.94;100.00
56198;BME280;42700;42.524;12.052;2023-06-04T04:05:21;94464.59;;;19.96;100.00
56198;BME280;42700;42.524;12.052;2023-06-04T04:07:47;94452.22;;;19.95;100.00
56198;BME280;42700;42.524;12.052;2023-06-04T04:10:13;94502.78;;;19.98;100.00
56198;BME280;42700;42.524;12.052;2023-06-04T04:12:38;94624.91;;;20.02;100.00
56198;BME280;42700;42.524;12.052;2023-06-04T04:15:04;94806.19;;;20.12;100.00
56198;BME280;42700;42.524;12.052;2023-06-04T04:17:30;94779.25;;;20.12;100.00
56198;BME280;42700;42.524;12.052;2023-06-04T04:19:55;94802.41;;;20.13;100.00
56198;BME280;42700;42.524;12.052;2023-06-04T04:22:21;94642.03;;;20.06;100.00
56198;BME280;42700;42.524;12.052;2023-06-04T04:24:46;94972.97;;;20.22;100.00
56198;BME280;42700;42.524;12.052;2023-06-04T04:27:12;95050.50;;;20.25;100.00
56198;BME280;42700;42.524;12.052;2023-06-04T04:29:37;95011.16;;;20.24;100.00
56198;BME280;42700;42.524;12.052;2023-06-04T04:32:03;95061.75;;;20.27;100.00
56198;BME280;42700;42.524;12.052;2023-06-04T04:34:36;95381.06;;;20.43;100.00
56198;BME280;42700;42.524;12.052;2023-06-04T04:37:03;95441.38;;;20.48;100.00
56198;BME280;42700;42.524;12.052;2023-06-04T04:39:28;95569.28;;;20.55;100.00
56198;BME280;42700;42.524;12.052;2023-06-04T04:41:54;95708.56;;;20.65;100.00
56198;BME280;42700;42.524;12.052;2023-06-04T04:44:20;95777.53;;;20.71;100.00
56198;BME280;42700;42.524;12.052;2023-06-04T04:46:47;95787.75;;;20.74;100.00
56198;BME280;42700;42.524;12.052;2023-06-04T04:49:13;95972.66;;;20.86;100.00
56198;BME280;42700;42.524;12.052;2023-06-04T04:51:38;96128.47;;;20.99;100.00
56198;BME280;42700;42.524;12.052;2023-06-04T04:54:04;96219.63;;;21.07;100.00
56198;BME280;42700;42.524;12.052;2023-06-04T04:56:29;96205.56;;;21.10;100.00
56198;BME280;42700;42.524;12.052;2023-06-04T04:58:55;96226.03;;;21.16;100.00
56198;BME280;42700;42.524;12.052;2023-06-04T05:01:20;96257.31;;;21.23;100.00
56198;BME280;42700;42.524;12.052;2023-06-04T05:03:48;96262.13;;;21.26;100.00
56198;BME280;42700;42.524;12.052;2023-06-04T05:06:14;96434.84;;;21.41;100.00
56198;BME280;42700;42.524;12.052;2023-06-04T05:08:40;96417.00;;;21.45;100.00
56198;BME280;42700;42.524;12.052;2023-06-04T05:11:07;95818.44;;;21.22;100.00
56198;BME280;42700;42.524;12.052;2023-06-04T05:13:33;96468.56;;;21.54;100.00
56198;BME280;42700;42.524;12.052;2023-06-04T05:15:58;96478.28;;;21.60;100.00
56198;BME280;42700;42.524;12.052;2023-06-04T05:18:24;96763.75;;;21.80;100.00
56198;BME280;42700;42.524;12.052;2023-06-04T05:20:54;96501.16;;;21.73;100.00
56198;BME280;42700;42.524;12.052;2023-06-04T05:23:20;96679.72;;;21.87;100.00
56198;BME280;42700;42.524;12.052;2023-06-04T05:25:46;96676.72;;;21.93;100.00
56198;BME280;42700;42.524;12.052;2023-06-04T05:28:14;96434.63;;;21.87;100.00
56198;BME280;42700;42.524;12.052;2023-06-04T05:30:40;96385.94;;;21.92;100.00
56198;BME280;42700;42.524;12.052;2023-06-04T05:33:09;96645.84;;;22.10;100.00
56198;BME280;42700;42.524;12.052;2023-06-04T05:35:46;96605.81;;;22.17;100.00
56198;BME280;42700;42.524;12.052;2023-06-04T05:38:13;96557.66;;;22.24;100.00
56198;BME280;42700;42.524;12.052;2023-06-04T05:40:44;96624.13;;;22.36;100.00
56198;BME280;42700;42.524;12.052;2023-06-04T05:43:09;96551.66;;;22.38;100.00
56198;BME280;42700;42.524;12.052;2023-06-04T05:45:35;96582.44;;;22.47;100.00
56198;BME280;42700;42.524;12.052;2023-06-04T05:48:01;96333.09;;;22.45;100.00
56198;BME280;42700;42.524;12.052;2023-06-04T05:50:27;96608.28;;;22.63;100.00
56198;BME280;42700;42.524;12.052;2023-06-04T05:52:52;96675.34;;;22.72;100.00
56198;BME280;42700;42.524;12.052;2023-06-04T05:55:18;96524.06;;;22.75;100.00
56198;BME280;42700;42.524;12.052;2023-06-04T05:57:46;96770.50;;;22.89;100.00
56198;BME280;42700;42.524;12.052;2023-06-04T06:00:12;96569.13;;;22.90;100.00
56198;BME280;42700;42.524;12.052;2023-06-04T06:02:38;96930.16;;;23.10;100.00
56198;BME280;42700;42.524;12.052;2023-06-04T06:05:04;96879.78;;;23.19;100.00
56198;BME280;42700;42.524;12.052;2023-06-04T06:07:33;97043.28;;;23.33;100.00
56198;BME280;42700;42.524;12.052;2023-06-04T06:09:59;97005.06;;;23.40;100.00
56198;BME280;42700;42.524;12.052;2023-06-04T06:12:24;96662.00;;;23.25;100.00
56198;BME280;42700;42.524;12.052;2023-06-04T06:14:50;96895.13;;;23.39;100.00
56198;BME280;42700;42.524;12.052;2023-06-04T06:17:15;96479.44;;;23.31;100.00
56198;BME280;42700;42.524;12.052;2023-06-04T06:19:41;96793.47;;;23.47;100.00
56198;BME280;42700;42.524;12.052;2023-06-04T06:22:07;96966.28;;;23.60;100.00
56198;BME280;42700;42.524;12.052;2023-06-04T06:24:32;96747.66;;;23.55;100.00
56198;BME280;42700;42.524;12.052;2023-06-04T06:26:58;96984.66;;;23.68;100.00
56198;BME280;42700;42.524;12.052;2023-06-04T06:29:24;97268.69;;;23.87;100.00
56198;BME280;42700;42.524;12.052;2023-06-04T06:31:50;97300.94;;;23.93;100.00
56198;BME280;42700;42.524;12.052;2023-06-04T06:34:16;97193.84;;;23.91;100.00
56198;BME280;42700;42.524;12.052;2023-06-04T06:36:41;96659.47;;;23.68;100.00
56198;BME280;42700;42.524;12.052;2023-06-04T06:39:07;97403.16;;;24.03;100.00
56198;BME280;42700;42.524;12.052;2023-06-04T06:41:32;97786.78;;;24.28;100.00
56198;BME280;42700;42.524;12.052;2023-06-04T06:43:57;97705.38;;;24.28;100.00
56198;BME280;42700;42.524;12.052;2023-06-04T06:46:23;97309.31;;;24.18;100.00
56198;BME280;42700;42.524;12.052;2023-06-04T06:48:48;98094.91;;;24.51;100.00
56198;BME280;42700;42.524;12.052;2023-06-04T06:51:14;98420.41;;;24.70;100.00
56198;BME280;42700;42.524;12.052;2023-06-04T06:53:40;98287.72;;;24.78;100.00
56198;BME280;42700;42.524;12.052;2023-06-04T06:56:06;98395.34;;;24.84;100.00
56198;BME280;42700;42.524;12.052;2023-06-04T06:58:31;97803.25;;;24.64;100.00
56198;BME280;42700;42.524;12.052;2023-06-04T07:00:57;98511.63;;;24.88;100.00
56198;BME280;42700;42.524;12.052;2023-06-04T07:03:22;97854.28;;;24.67;100.00
56198;BME280;42700;42.524;12.052;2023-06-04T07:05:48;97981.16;;;24.77;100.00
56198;BME280;42700;42.524;12.052;2023-06-04T07:08:14;98747.78;;;25.11;100.00
56198;BME280;42700;42.524;12.052;2023-06-04T07:10:39;98758.50;;;25.18;100.00
56198;BME280;42700;42.524;12.052;2023-06-04T07:13:05;97569.78;;;24.74;100.00
56198;BME280;42700;42.524;12.052;2023-06-04T07:15:30;97323.03;;;24.67;100.00
56198;BME280;42700;42.524;12.052;2023-06-04T07:17:56;96860.78;;;24.43;100.00
56198;BME280;42700;42.524;12.052;2023-06-04T07:20:21;96707.88;;;24.34;100.00
56198;BME280;42700;42.524;12.052;2023-06-04T07:22:47;97927.72;;;24.88;100.00
56198;BME280;42700;42.524;12.052;2023-06-04T07:25:12;97339.06;;;24.69;100.00
56198;BME280;42700;42.524;12.052;2023-06-04T07:27:38;97890.81;;;24.97;100.00
56198;BME280;42700;42.524;12.052;2023-06-04T07:30:05;99166.16;;;25.53;100.00
56198;BME280;42700;42.524;12.052;2023-06-04T07:32:31;99036.94;;;25.51;100.00
56198;BME280;42700;42.524;12.052;2023-06-04T07:34:56;99266.06;;;25.70;100.00
56198;BME280;42700;42.524;12.052;2023-06-04T07:37:22;99437.94;;;25.78;100.00
56198;BME280;42700;42.524;12.052;2023-06-04T07:39:48;98526.56;;;25.46;100.00
56198;BME280;42700;42.524;12.052;2023-06-04T07:42:13;99928.56;;;25.98;100.00
56198;BME280;42700;42.524;12.052;2023-06-04T07:44:39;100258.19;;;26.21;100.00
56198;BME280;42700;42.524;12.052;2023-06-04T07:47:04;99613.72;;;26.10;100.00
56198;BME280;42700;42.524;12.052;2023-06-04T07:49:30;100702.31;;;26.60;100.00
56198;BME280;42700;42.524;12.052;2023-06-04T07:51:56;100232.91;;;26.46;100.00
56198;BME280;42700;42.524;12.052;2023-06-04T07:54:21;100761.84;;;26.69;100.00
56198;BME280;42700;42.524;12.052;2023-06-04T07:56:47;101065.94;;;26.85;100.00
56198;BME280;42700;42.524;12.052;2023-06-04T07:59:13;101407.34;;;27.09;100.00
56198;BME280;42700;42.524;12.052;2023-06-04T08:01:38;101140.28;;;27.07;100.00
56198;BME280;42700;42.524;12.052;2023-06-04T08:04:04;101187.31;;;27.10;100.00
56198;BME280;42700;42.524;12.052;2023-06-04T08:06:30;100845.34;;;26.97;100.00
56198;BME280;42700;42.524;12.052;2023-06-04T08:08:55;101393.84;;;27.22;100.00
56198;BME280;42700;42.524;12.052;2023-06-04T08:11:21;102012.41;;;27.52;100.00
56198;BME280;42700;42.524;12.052;2023-06-04T08:13:49;102156.31;;;27.66;100.00
56198;BME280;42700;42.524;12.052;2023-06-04T08:16:15;102336.97;;;27.78;100.00
56198;BME280;42700;42.524;12.052;2023-06-04T08:18:40;102492.78;;;27.93;100.00
56198;BME280;42700;42.524;12.052;2023-06-04T08:21:09;101685.66;;;27.67;100.00
56198;BME280;42700;42.524;12.052;2023-06-04T08:23:36;102093.75;;;27.79;100.00
56198;BME280;42700;42.524;12.052;2023-06-04T08:26:01;102615.34;;;28.04;100.00
56198;BME280;42700;42.524;12.052;2023-06-04T08:28:27;102246.41;;;27.97;100.00
56198;BME280;42700;42.524;12.052;2023-06-04T08:30:52;102077.59;;;27.93;100.00
56198;BME280;42700;42.524;12.052;2023-06-04T08:33:18;101871.97;;;27.84;100.00
56198;BME280;42700;42.524;12.052;2023-06-04T08:35:43;101871.97;;;27.84;100.00
56198;BME280;42700;42.524;12.052;2023-06-04T08:38:08;101852.88;;;27.84;100.00
56198;BME280;42700;42.524;12.052;2023-06-04T08:40:34;102098.84;;;27.83;100.00
56198;BME280;42700;42.524;12.052;2023-06-04T08:43:02;102069.91;;;27.88;100.00
56198;BME280;42700;42.524;12.052;2023-06-04T08:45:29;102437.06;;;28.10;100.00
56198;BME280;42700;42.524;12.052;2023-06-04T08:47:57;102675.09;;;28.24;100.00
56198;BME280;42700;42.524;12.052;2023-06-04T08:50:24;103055.44;;;28.45;100.00
56198;BME280;42700;42.524;12.052;2023-06-04T08:52:54;103255.09;;;28.53;100.00
56198;BME280;42700;42.524;12.052;2023-06-04T08:55:22;103240.09;;;28.58;100.00
56198;BME280;42700;42.524;12.052;2023-06-04T08:57:50;103120.06;;;28.54;100.00
56198;BME280;42700;42.524;12.052;2023-06-04T09:00:16;102796.22;;;28.41;100.00
56198;BME280;42700;42.524;12.052;2023-06-04T09:02:43;103553.47;;;28.78;100.00
56198;BME280;42700;42.524;12.052;2023-06-04T09:05:10;102347.75;;;28.34;100.00
56198;BME280;42700;42.524;12.052;2023-06-04T09:07:38;102281.81;;;28.37;100.00
56198;BME280;42700;42.524;12.052;2023-06-04T09:10:06;102722.22;;;28.50;100.00
56198;BME280;42700;42.524;12.052;2023-06-04T09:12:32;102664.63;;;28.52;100.00
56198;BME280;42700;42.524;12.052;2023-06-04T09:15:00;103519.16;;;28.84;100.00
56198;BME280;42700;42.524;12.052;2023-06-04T09:17:26;103723.63;;;28.92;100.00
56198;BME280;42700;42.524;12.052;2023-06-04T09:19:52;103510.78;;;28.85;100.00
56198;BME280;42700;42.524;12.052;2023-06-04T09:22:18;103437.22;;;28.82;100.00
56198;BME280;42700;42.524;12.052;2023-06-04T09:24:47;103122.72;;;28.73;100.00
56198;BME280;42700;42.524;12.052;2023-06-04T09:27:18;102928.00;;;28.61;100.00
56198;BME280;42700;42.524;12.052;2023-06-04T09:29:54;103440.81;;;28.83;100.00
56198;BME280;42700;42.524;12.052;2023-06-04T09:32:23;103137.09;;;28.75;100.00
56198;BME280;42700;42.524;12.052;2023-06-04T09:34:49;103136.25;;;28.74;100.00
56198;BME280;42700;42.524;12.052;2023-06-04T09:37:15;103088.72;;;28.75;100.00
56198;BME280;42700;42.524;12.052;2023-06-04T09:39:43;103300.41;;;28.82;100.00
56198;BME280;42700;42.524;12.052;2023-06-04T09:42:10;103197.47;;;28.81;100.00
56198;BME280;42700;42.524;12.052;2023-06-04T09:45:25;102862.38;;;28.69;100.00
56198;BME280;42700;42.524;12.052;2023-06-04T09:47:26;103517.34;;;28.93;100.00
56198;BME280;42700;42.524;12.052;2023-06-04T09:49:57;103236.66;;;28.82;100.00
56198;BME280;42700;42.524;12.052;2023-06-04T09:52:31;102928.00;;;28.69;100.00
56198;BME280;42700;42.524;12.052;2023-06-04T09:54:57;103729.47;;;28.97;100.00
56198;BME280;42700;42.524;12.052;2023-06-04T09:57:22;103673.72;;;28.98;100.00
56198;BME280;42700;42.524;12.052;2023-06-04T09:59:51;103724.41;;;29.02;100.00
56198;BME280;42700;42.524;12.052;2023-06-04T10:02:21;103738.78;;;29.04;100.00
56198;BME280;42700;42.524;12.052;2023-06-04T10:04:53;103412.34;;;28.94;100.00
56198;BME280;42700;42.524;12.052;2023-06-04T10:07:23;104528.22;;;29.34;100.00
56198;BME280;42700;42.524;12.052;2023-06-04T10:09:49;105156.03;;;29.61;100.00
56198;BME280;42700;42.524;12.052;2023-06-04T10:12:15;104121.47;;;29.30;100.00
56198;BME280;42700;42.524;12.052;2023-06-04T10:14:52;103780.25;;;29.09;100.00
56198;BME280;42700;42.524;12.052;2023-06-04T10:17:33;103863.50;;;29.16;100.00
56198;BME280;42700;42.524;12.052;2023-06-04T10:19:59;102926.28;;;28.84;100.00
56198;BME280;42700;42.524;12.052;2023-06-04T10:22:28;103383.63;;;28.98;100.00
56198;BME280;42700;42.524;12.052;2023-06-04T10:24:53;103333.66;;;28.96;100.00
56198;BME280;42700;42.524;12.052;2023-06-04T10:27:19;103067.53;;;28.85;100.00
56198;BME280;42700;42.524;12.052;2023-06-04T10:29:45;103286.63;;;28.92;100.00
56198;BME280;42700;42.524;12.052;2023-06-04T10:32:11;102602.53;;;28.69;100.00
56198;BME280;42700;42.524;12.052;2023-06-04T10:34:37;102858.94;;;28.75;100.00
56198;BME280;42700;42.524;12.052;2023-06-04T10:37:02;101949.25;;;28.44;100.00
56198;BME280;42700;42.524;12.052;2023-06-04T10:39:29;101548.84;;;28.27;100.00
56198;BME280;42700;42.524;12.052;2023-06-04T10:42:06;101147.81;;;28.09;100.00
56198;BME280;42700;42.524;12.052;2023-06-04T10:44:32;100994.44;;;27.98;100.00
56198;BME280;42700;42.524;12.052;2023-06-04T10:46:58;101122.59;;;28.00;100.00
56198;BME280;42700;42.524;12.052;2023-06-04T10:49:29;101443.66;;;28.09;100.00
56198;BME280;42700;42.524;12.052;2023-06-04T10:51:56;101966.25;;;28.25;100.00
56198;BME280;42700;42.524;12.052;2023-06-04T10:54:23;101906.31;;;28.23;100.00
56198;BME280;42700;42.524;12.052;2023-06-04T10:56:52;101585.31;;;28.12;100.00
56198;BME280;42700;42.524;12.052;2023-06-04T10:59:18;101775.78;;;28.19;100.00
56198;BME280;42700;42.524;12.052;2023-06-04T11:01:45;101817.41;;;28.21;100.00
56198;BME280;42700;42.524;12.052;2023-06-04T11:04:25;101124.69;;;27.98;100.00
56198;BME280;42700;42.524;12.052;2023-06-04T11:07:02;100911.88;;;27.90;100.00
56198;BME280;42700;42.524;12.052;2023-06-04T11:09:30;100712.19;;;27.79;100.00
56198;BME280;42700;42.524;12.052;2023-06-04T11:11:58;100512.34;;;27.71;100.00
56198;BME280;42700;42.524;12.052;2023-06-04T11:14:24;100577.00;;;27.70;100.00
56198;BME280;42700;42.524;12.052;2023-06-04T11:16:50;100216.06;;;27.56;100.00
56198;BME280;42700;42.524;12.052;2023-06-04T11:19:15;99994.56;;;27.48;100.00
56198;BME280;42700;42.524;12.052;2023-06-04T11:21:41;99694.25;;;27.37;100.00
56198;BME280;42700;42.524;12.052;2023-06-04T11:24:06;99769.31;;;27.40;100.00
56198;BME280;42700;42.524;12.052;2023-06-04T11:26:32;99687.16;;;27.36;100.00
56198;BME280;42700;42.524;12.052;2023-06-04T11:28:59;100081.88;;;27.48;100.00
56198;BME280;42700;42.524;12.052;2023-06-04T11:31:24;100039.50;;;27.45;100.00
56198;BME280;42700;42.524;12.052;2023-06-04T11:33:50;100269.41;;;27.52;100.00
56198;BME280;42700;42.524;12.052;2023-06-04T11:36:26;100112.25;;;27.51;100.00
56198;BME280;42700;42.524;12.052;2023-06-04T11:38:56;99803.34;;;27.37;100.00
56198;BME280;42700;42.524;12.052;2023-06-04T11:41:23;99851.97;;;27.40;100.00
56198;BME280;42700;42.524;12.052;2023-06-04T11:43:49;99794.94;;;27.39;100.00
56198;BME280;42700;42.524;12.052;2023-06-04T11:46:14;99852.44;;;27.37;100.00
56198;BME280;42700;42.524;12.052;2023-06-04T11:48:40;99690.59;;;27.32;100.00
56198;BME280;42700;42.524;12.052;2023-06-04T11:51:06;99186.09;;;27.15;100.00
56198;BME280;42700;42.524;12.052;2023-06-04T11:53:33;99085.41;;;27.08;100.00
56198;BME280;42700;42.524;12.052;2023-06-04T11:55:59;98901.31;;;27.00;100.00
56198;BME280;42700;42.524;12.052;2023-06-04T11:58:25;98630.06;;;26.87;100.00
56198;BME280;42700;42.524;12.052;2023-06-04T12:00:51;98565.47;;;26.83;100.00
56198;BME280;42700;42.524;12.052;2023-06-04T12:03:16;98598.69;;;26.80;100.00
56198;BME280;42700;42.524;12.052;2023-06-04T12:05:41;98727.28;;;26.82;100.00
56198;BME280;42700;42.524;12.052;2023-06-04T12:08:08;98570.84;;;26.73;100.00
56198;BME280;42700;42.524;12.052;2023-06-04T12:13:03;98781.16;;;26.75;100.00
56198;BME280;42700;42.524;12.052;2023-06-04T12:15:29;99010.88;;;26.80;100.00
56198;BME280;42700;42.524;12.052;2023-06-04T12:17:54;98845.41;;;26.70;100.00
56198;BME280;42700;42.524;12.052;2023-06-04T12:20:33;98848.06;;;26.65;100.00
56198;BME280;42700;42.524;12.052;2023-06-04T12:22:58;99121.09;;;26.73;100.00
56198;BME280;42700;42.524;12.052;2023-06-04T12:25:25;99675.16;;;26.90;100.00
56198;BME280;42700;42.524;12.052;2023-06-04T12:27:53;98990.16;;;26.62;100.00
56198;BME280;42700;42.524;12.052;2023-06-04T12:30:19;99621.00;;;26.82;100.00
56198;BME280;42700;42.524;12.052;2023-06-04T12:32:45;99868.66;;;26.90;100.00
56198;BME280;42700;42.524;12.052;2023-06-04T12:35:10;99647.41;;;26.81;100.00
56198;BME280;42700;42.524;12.052;2023-06-04T12:37:36;99648.72;;;26.79;100.00
56198;BME280;42700;42.524;12.052;2023-06-04T12:40:02;99921.94;;;26.86;100.00
56198;BME280;42700;42.524;12.052;2023-06-04T12:42:29;99792.09;;;26.80;100.00
56198;BME280;42700;42.524;12.052;2023-06-04T12:44:55;100052.31;;;26.89;100.00
56198;BME280;42700;42.524;12.052;2023-06-04T12:47:21;97993.38;;;26.11;100.00
56198;BME280;42700;42.524;12.052;2023-06-04T12:49:46;99434.53;;;26.54;100.00
56198;BME280;42700;42.524;12.052;2023-06-04T12:52:12;98951.94;;;26.35;100.00
56198;BME280;42700;42.524;12.052;2023-06-04T12:54:39;99239.78;;;26.40;100.00
56198;BME280;42700;42.524;12.052;2023-06-04T12:57:05;99749.56;;;26.60;100.00
56198;BME280;42700;42.524;12.052;2023-06-04T12:59:30;99739.72;;;26.59;100.00
56198;BME280;42700;42.524;12.052;2023-06-04T13:01:56;98843.72;;;26.25;100.00
56198;BME280;42700;42.524;12.052;2023-06-04T13:04:22;98367.69;;;25.96;100.00
56198;BME280;42700;42.524;12.052;2023-06-04T13:06:49;98092.84;;;25.81;100.00
56198;BME280;42700;42.524;12.052;2023-06-04T13:09:14;99052.28;;;26.14;100.00
56198;BME280;42700;42.524;12.052;2023-06-04T13:11:41;98934.13;;;26.10;100.00
56198;BME280;42700;42.524;12.052;2023-06-04T13:14:07;99336.66;;;26.24;100.00
56198;BME280;42700;42.524;12.052;2023-06-04T13:16:33;97250.66;;;25.47;100.00
56198;BME280;42700;42.524;12.052;2023-06-04T13:18:58;98665.25;;;25.90;100.00
56198;BME280;42700;42.524;12.052;2023-06-04T13:21:24;99071.50;;;26.08;100.00
56198;BME280;42700;42.524;12.052;2023-06-04T13:23:49;99206.28;;;26.10;100.00
56198;BME280;42700;42.524;12.052;2023-06-04T13:26:15;98626.06;;;25.91;100.00
56198;BME280;42700;42.524;12.052;2023-06-04T13:28:41;99466.53;;;26.23;100.00
56198;BME280;42700;42.524;12.052;2023-06-04T13:31:07;99471.97;;;26.23;100.00
56198;BME280;42700;42.524;12.052;2023-06-04T13:33:32;99810.22;;;26.37;100.00
56198;BME280;42700;42.524;12.052;2023-06-04T13:36:00;97893.22;;;25.72;100.00
56198;BME280;42700;42.524;12.052;2023-06-04T13:38:26;97246.94;;;25.38;100.00
56198;BME280;42700;42.524;12.052;2023-06-04T13:40:52;99251.84;;;26.15;100.00
56198;BME280;42700;42.524;12.052;2023-06-04T13:43:17;99389.09;;;26.19;100.00
56198;BME280;42700;42.524;12.052;2023-06-04T13:45:43;99039.31;;;26.05;100.00
56198;BME280;42700;42.524;12.052;2023-06-04T13:48:10;99178.22;;;26.10;100.00
56198;BME280;42700;42.524;12.052;2023-06-04T13:50:36;99215.03;;;26.12;100.00
56198;BME280;42700;42.524;12.052;2023-06-04T13:53:01;98996.88;;;26.04;100.00
56198;BME280;42700;42.524;12.052;2023-06-04T13:55:27;99024.66;;;26.06;100.00
56198;BME280;42700;42.524;12.052;2023-06-04T13:57:52;99006.66;;;26.05;100.00
56198;BME280;42700;42.524;12.052;2023-06-04T14:00:18;99321.53;;;26.16;100.00
56198;BME280;42700;42.524;12.052;2023-06-04T14:02:46;98881.41;;;26.00;100.00
56198;BME280;42700;42.524;12.052;2023-06-04T14:05:12;98859.91;;;25.98;100.00
56198;BME280;42700;42.524;12.052;2023-06-04T14:07:37;98110.75;;;25.72;100.00
56198;BME280;42700;42.524;12.052;2023-06-04T14:10:03;98621.13;;;25.88;100.00
56198;BME280;42700;42.524;12.052;2023-06-04T14:12:28;98751.53;;;25.95;100.00
56198;BME280;42700;42.524;12.052;2023-06-04T14:14:54;98361.56;;;25.79;100.00
56198;BME280;42700;42.524;12.052;2023-06-04T14:17:19;97687.69;;;25.55;100.00
56198;BME280;42700;42.524;12.052;2023-06-04T14:19:45;98263.34;;;25.75;100.00
56198;BME280;42700;42.524;12.052;2023-06-04T14:22:11;97717.88;;;25.54;100.00
56198;BME280;42700;42.524;12.052;2023-06-04T14:24:39;98851.16;;;25.96;100.00
56198;BME280;42700;42.524;12.052;2023-06-04T14:27:05;98722.38;;;25.90;100.00
56198;BME280;42700;42.524;12.052;2023-06-04T14:29:32;98312.06;;;25.77;100.00
56198;BME280;42700;42.524;12.052;2023-06-04T14:31:57;97587.69;;;25.47;100.00
56198;BME280;42700;42.524;12.052;2023-06-04T14:34:23;97469.72;;;25.43;100.00
56198;BME280;42700;42.524;12.052;2023-06-04T14:36:49;97915.22;;;25.55;100.00
56198;BME280;42700;42.524;12.052;2023-06-04T14:39:14;98053.06;;;25.59;100.00
56198;BME280;42700;42.524;12.052;2023-06-04T14:41:40;97865.19;;;25.51;100.00
56198;BME280;42700;42.524;12.052;2023-06-04T14:44:05;97662.16;;;25.41;100.00
56198;BME280;42700;42.524;12.052;2023-06-04T14:46:31;97366.56;;;25.28;100.00
56198;BME280;42700;42.524;12.052;2023-06-04T14:48:56;97472.25;;;25.29;100.00
56198;BME280;42700;42.524;12.052;2023-06-04T14:51:21;97631.72;;;25.34;100.00